This is the latest recevied weather packets stored in our database for station/object N7CW. If no packets are shown the sender has not sent any weather packets the latest 10 day(s).
| Time | Temp. | Humidity | Pressure | Rain* | Wind** | Luminosity | Snow |
|---|---|---|---|---|---|---|---|
| 1777472175 | 11.67° C | 36% | 1019.4 hPa | 0 mm | - | 156 W/m² | - |
| 1777471875 | 10.56° C | 38% | 1019.3 hPa | 0 mm | - | 141 W/m² | - |
| 1777471572 | 10.56° C | 38% | 1019.3 hPa | 0 mm | - | 126 W/m² | - |
| 1777471269 | 10.56° C | 38% | 1019.5 hPa | 0 mm | - | 111 W/m² | - |
| 1777470965 | 9.44° C | 40% | 1019.3 hPa | 0 mm | - | 97 W/m² | - |
| 1777470663 | 8.33° C | 41% | 1019.4 hPa | 0 mm | - | 85 W/m² | - |
| 1777470358 | 8.33° C | 43% | 1019.4 hPa | 0 mm | - | 72 W/m² | - |
| 1777470055 | 7.78° C | 44% | 1019.3 hPa | 0 mm | - | 61 W/m² | - |
| 1777469751 | 7.22° C | 44% | 1019.3 hPa | 0 mm | - | 51 W/m² | - |
| 1777469447 | 6.11° C | 46% | 1019.3 hPa | 0 mm | - | 41 W/m² | - |
| 1777469142 | 5.56° C | 47% | 1019.3 hPa | 0 mm | - | 33 W/m² | - |
| 1777468837 | 5° C | 48% | 1019.2 hPa | 0 mm | - | 28 W/m² | - |
| 1777468534 | 5° C | 48% | 1019.2 hPa | 0 mm | - | 25 W/m² | - |
| 1777468230 | 4.44° C | 48% | 1019.2 hPa | 0 mm | - | 21 W/m² | - |
| 1777467927 | 3.89° C | 51% | 1019.3 hPa | 0 mm | - | 17 W/m² | - |
| 1777467623 | 4.44° C | 50% | 1019.2 hPa | 0 mm | - | 14 W/m² | - |
| 1777467318 | 3.89° C | 50% | 1018.8 hPa | 0 mm | - | 11 W/m² | - |
| 1777467014 | 2.78° C | 53% | 1019.1 hPa | 0 mm | - | 7 W/m² | - |
| 1777466712 | 3.33° C | 50% | 1019.2 hPa | 0 mm | - | 5 W/m² | - |
| 1777466409 | 3.33° C | 50% | 1019.1 hPa | 0 mm | - | 3 W/m² | - |
| 1777466105 | 3.33° C | 50% | 1019 hPa | 0 mm | - | 1 W/m² | - |
| 1777465802 | 3.89° C | 49% | 1019 hPa | 0 mm | - | 0 W/m² | - |
| 1777465497 | 5° C | 48% | 1019 hPa | 0 mm | - | 0 W/m² | - |
| 1777465196 | 5° C | 47% | 1018.7 hPa | 0 mm | - | 0 W/m² | - |
| 1777464892 | 5.56° C | 46% | 1019 hPa | 0 mm | - | 0 W/m² | - |
* Rain latest hour (hover to see other rain measurements)
** Current wind speed in m/s (hover to see current wind gust speed)